Flight Track Log - Related Links

Times and Time Zones

All times are in EDT time to prevent confusion due to time zone crossing. See the CSK26 flight status page for this flight to view local times or setup timezone preferences in your user account.

Time Position Orientation Groundspeed Altitude Reporting Facility
EDT Latitude Longitude Course Direction KTS MPH feet Rate Location/Type
Thu 06:54:16 PM 37.6575 -118.4925 338° Northwest 184 212 16,500  Level Oakland Center
Thu 06:55:18 PM 37.7114 -118.5197 338° Northwest 199 229 16,900 585 Climbing Oakland Center
Thu 06:56:19 PM 37.7717 -118.5536 336° Northwest 224 258 17,700 1,171 Climbing Oakland Center
Thu 06:57:21 PM 37.8211 -118.5919 329° Northwest 217 250 19,300 927 Climbing Oakland Center
Thu 06:58:22 PM 37.8878 -118.6239 339° North 220 253 19,600 439 Climbing Oakland Center
Thu 06:59:24 PM 37.9503 -118.6614 335° Northwest 242 278 20,200 585 Climbing Oakland Center
Thu 07:00:25 PM 38.0111 -118.7000 333° Northwest 245 282 20,800 683 Climbing Oakland Center
Thu 07:01:27 PM 38.0719 -118.7331 337° Northwest 240 276 21,600 683 Climbing Oakland Center
Thu 07:02:28 PM 38.1400 -118.7664 339° North 243 280 22,200 488 Climbing Oakland Center
Thu 07:03:30 PM 38.1994 -118.8036 334° Northwest 241 277 22,600 439 Climbing Oakland Center
Thu 07:04:31 PM 38.2619 -118.8439 333° Northwest 248 285 23,100 390 Climbing Oakland Center
Thu 07:05:33 PM 38.3244 -118.8814 335° Northwest 250 288 23,400 292 Climbing Oakland Center
Thu 07:07:00 PM 38.4161 -118.9391 334° Northwest  Level FlightAware Approximate
Thu 07:07:36 PM 38.4514 -118.9603 334° Northwest 254 292 24,000  Level Oakland Center
Thu 07:08:37 PM 38.5203 -118.9997 336° Northwest 267 307 24,000  Level Oakland Center
Thu 07:09:39 PM 38.5883 -119.0431 334° Northwest 272 313 24,000  Level Oakland Center
Thu 07:10:40 PM 38.6569 -119.0858 334° Northwest 274 315 24,000 -49 Level Oakland Center
Thu 07:11:42 PM 38.7375 -119.1369 334° Northwest 270 311 23,900  Descending Oakland Center
Thu 07:12:43 PM 38.8056 -119.1800 334° Northwest 271 312 24,000  Climbing Oakland Center
Thu 07:13:45 PM 38.8717 -119.2211 334° Northwest 266 306 23,900 -49 Descending Oakland Center
Thu 07:14:46 PM 38.9389 -119.2608 335° Northwest 264 304 23,900  Level Oakland Center
Thu 07:15:48 PM 39.0072 -119.3022 335° Northwest 269 310 23,900  Level Oakland Center
Thu 07:16:49 PM 39.0744 -119.3444 334° Northwest 267 307 23,900  Level Oakland Center
Thu 07:17:51 PM 39.1425 -119.3856 335° Northwest 268 308 23,900  Level Oakland Center
Thu 07:18:52 PM 39.2094 -119.4269 334° Northwest 267 307 23,900  Level Oakland Center
Thu 07:19:54 PM 39.2767 -119.4700 334° Northwest 267 307 23,900  Level Oakland Center
Thu 07:20:56 PM 39.3600 -119.5206 335° Northwest 277 319 23,900  Level Oakland Center
Thu 07:21:57 PM 39.4300 -119.5644 334° Northwest 276 318 23,900  Level Oakland Center
Thu 07:22:59 PM 39.4994 -119.6064 335° Northwest 275 316 23,900  Level Oakland Center
Thu 07:24:00 PM 39.5678 -119.6481 335° Northwest 271 312 23,900  Level Oakland Center
Thu 07:25:02 PM 39.6361 -119.6911 334° Northwest 274 315 23,900  Level Oakland Center
Thu 07:26:03 PM 39.7036 -119.7336 334° Northwest 269 310 23,900  Level Oakland Center
Thu 07:27:05 PM 39.7692 -119.7761 334° Northwest 263 303 23,900  Level Oakland Center
Thu 07:28:07 PM 39.8369 -119.8197 334° Northwest 267 307 23,900  Level Oakland Center
Thu 07:29:08 PM 39.9061 -119.8619 335° Northwest 272 313 23,900  Level Oakland Center
Thu 07:30:10 PM 39.9889 -119.9139 334° Northwest 273 314 23,900  Level Oakland Center
Thu 07:31:11 PM 40.0567 -119.9581 333° Northwest 273 314 23,900  Level Oakland Center
Thu 07:32:13 PM 40.1239 -120.0006 334° Northwest 270 311 23,900  Level Oakland Center
Thu 07:33:15 PM 40.1931 -120.0419 335° Northwest 272 313 23,900  Level Oakland Center
Thu 07:34:16 PM 40.2606 -120.0867 333° Northwest 271 312 23,900  Level Oakland Center
Thu 07:35:18 PM 40.3286 -120.1300 334° Northwest 272 313 23,900  Level Oakland Center
Thu 07:36:19 PM 40.3981 -120.1733 335° Northwest 274 315 23,900  Level Oakland Center
Thu 07:37:21 PM 40.4658 -120.2167 334° Northwest 273 314 23,900  Level Oakland Center
Thu 07:38:23 PM 40.5453 -120.2683 334° Northwest 266 306 23,900  Level Oakland Center
Thu 07:39:24 PM 40.6128 -120.3119 334° Northwest 267 307 23,900  Level Oakland Center
Thu 07:40:35 PM 40.6814 -120.3567 334° Northwest 270 311 23,900  Level Seattle Center
Thu 07:41:27 PM 40.7461 -120.3981 334° Northwest 267 307 23,900  Level Oakland Center
Thu 07:42:29 PM 40.8119 -120.4417 333° Northwest 266 306 23,900  Level Oakland Center
Thu 07:43:30 PM 40.8794 -120.4858 334° Northwest 267 307 23,900  Level Oakland Center
Thu 07:44:32 PM 40.9461 -120.5306 333° Northwest 269 310 23,900 46 Level Oakland Center
Thu 07:45:41 PM 41.0314 -120.5822 335° Northwest 273 314 24,000 46 Climbing Seattle Center
Thu 07:46:43 PM 41.0986 -120.6261 334° Northwest 270 311 24,000  Level Seattle Center
Thu 07:47:44 PM 41.1658 -120.6703 334° Northwest 268 308 24,000  Level Seattle Center
Thu 07:48:45 PM 41.2319 -120.7150 333° Northwest 270 311 24,000  Level Seattle Center
Thu 07:49:46 PM 41.3000 -120.7606 333° Northwest 274 315 24,000  Level Seattle Center
Thu 07:50:47 PM 41.3681 -120.8042 334° Northwest 273 314 24,000  Level Seattle Center
Thu 07:51:49 PM 41.4500 -120.8583 334° Northwest 274 315 24,000  Level Seattle Center
Thu 07:52:50 PM 41.5167 -120.9042 333° Northwest 272 313 24,000  Level Seattle Center
Thu 07:53:51 PM 41.5847 -120.9492 334° Northwest 272 313 24,000  Level Seattle Center
Thu 07:54:52 PM 41.6514 -120.9939 333° Northwest 270 311 24,000  Level Seattle Center
Thu 07:55:53 PM 41.7172 -121.0392 333° Northwest 268 308 24,000  Level Seattle Center
Thu 07:56:54 PM 41.7831 -121.0831 334° Northwest 266 306 24,000  Level Seattle Center
Thu 07:57:56 PM 41.8500 -121.1289 333° Northwest 268 308 24,000  Level Seattle Center
Thu 07:58:57 PM 41.9161 -121.1736 333° Northwest 268 308 24,000  Level Seattle Center
Thu 07:59:59 PM 41.9950 -121.2278 333° Northwest 268 308 24,000  Level Seattle Center
Thu 08:01:00 PM 42.0597 -121.2728 333° Northwest 264 304 24,000 -49 Level Seattle Center
Thu 08:02:01 PM 42.1272 -121.3164 334° Northwest 269 310 23,900 -49 Descending Seattle Center
Thu 08:03:02 PM 42.1928 -121.3597 334° Northwest 266 306 23,900  Level Seattle Center
Thu 08:04:03 PM 42.2581 -121.4022 334° Northwest 260 299 23,900  Level Seattle Center
Thu 08:05:05 PM 42.3214 -121.4517 330° Northwest 264 304 23,900  Level Seattle Center
Thu 08:06:06 PM 42.3861 -121.4969 333° Northwest 263 303 23,900  Level Seattle Center
Thu 08:07:07 PM 42.4528 -121.5408 334° Northwest 267 307 23,900  Level Seattle Center
Thu 08:08:08 PM 42.5192 -121.5872 333° Northwest 269 310 23,900 49 Level Seattle Center
Thu 08:09:09 PM 42.5997 -121.6400 334° Northwest 271 312 24,000  Climbing Seattle Center
Thu 08:10:11 PM 42.6658 -121.6872 332° Northwest 270 311 23,900 -49 Descending Seattle Center
Thu 08:11:12 PM 42.7328 -121.7339 333° Northwest 270 311 23,900  Level Seattle Center
Thu 08:12:13 PM 42.7994 -121.7797 333° Northwest 270 311 23,900  Level Seattle Center
Thu 08:13:14 PM 42.8656 -121.8256 333° Northwest 269 310 23,900  Level Seattle Center
Thu 08:14:15 PM 42.9325 -121.8697 334° Northwest 268 308 23,900  Level Seattle Center
Thu 08:15:17 PM 42.9975 -121.9167 332° Northwest 266 306 23,900  Level Seattle Center
Thu 08:16:18 PM 43.0628 -121.9642 332° Northwest 266 306 23,900  Level Seattle Center
Thu 08:17:19 PM 43.1417 -122.0206 332° Northwest 267 307 23,900  Level Seattle Center
Thu 08:18:20 PM 43.2083 -122.0683 332° Northwest 269 310 23,900 49 Level Seattle Center
Thu 08:19:21 PM 43.2744 -122.1158 332° Northwest 270 311 24,000 49 Climbing Seattle Center
Thu 08:20:23 PM 43.3417 -122.1600 334° Northwest 269 310 24,000  Level Seattle Center
Thu 08:21:24 PM 43.4092 -122.2069 333° Northwest 270 311 24,000  Level Seattle Center
Thu 08:22:25 PM 43.4750 -122.2519 334° Northwest 268 308 24,000  Level Seattle Center
Thu 08:23:26 PM 43.5419 -122.3017 332° Northwest 270 311 24,000  Level Seattle Center
Thu 08:24:28 PM 43.6097 -122.3508 332° Northwest 273 314 24,000 -49 Level Seattle Center
Thu 08:25:29 PM 43.6758 -122.3989 332° Northwest 271 312 23,900  Descending Seattle Center
Thu 08:26:30 PM 43.7444 -122.4481 333° Northwest 274 315 24,000 49 Climbing Seattle Center
Thu 08:27:31 PM 43.8131 -122.4944 334° Northwest 274 315 24,000  Level Seattle Center
Thu 08:28:32 PM 43.9122 -122.5081 354° North 297 342 24,000  Level Seattle Center
Thu 08:29:34 PM 43.9933 -122.5231 352° North 295 339 24,000  Level Seattle Center
Thu 08:30:35 PM 44.0750 -122.5339 355° North 296 341 24,000 -197 Level Seattle Center
Thu 08:31:36 PM 44.1564 -122.5450 354° North 295 339 23,600 -639 Descending Seattle Center
Thu 08:32:37 PM 44.2436 -122.5569 354° North 308 354 22,700 -1,033 Descending Seattle Center
Thu 08:33:38 PM 44.3308 -122.5658 356° North 314 361 21,500 -1,366 Descending Seattle Center
Thu 08:34:40 PM 44.4181 -122.5778 354° North 316 364 19,900 -1,707 Descending Seattle Center
Thu 08:35:41 PM 44.5042 -122.5903 354° North 314 361 18,000 -1,770 Descending Seattle Center
Thu 08:36:42 PM 44.6061 -122.6075 353° North 310 357 16,300 -1,565 Descending Seattle Center
Thu 08:37:13 PM 44.6442 -122.6156 351° North 303 349 15,600 -1,377 Descending Seattle Center
Thu 08:37:43 PM 44.6894 -122.6247 352° North 301 346 14,900 -1,385 Descending Seattle Center
Thu 08:38:44 PM 44.7725 -122.6400 353° North 299 344 13,500 -1,426 Descending Seattle Center
Thu 08:39:45 PM 44.8539 -122.6558 352° North 296 341 12,000 -1,328 Descending Seattle Center
Thu 08:40:46 PM 44.9325 -122.6700 353° North 287 330 10,800 -934 Descending Seattle Center
Thu 08:41:47 PM 45.0083 -122.6700 360° North 269 310 10,100 -758 Descending Seattle Center
Thu 08:43:00 PM 45.0929 -122.6500 North  Level FlightAware Approximate
Thu 08:43:48 PM 45.1633 -122.6533 North 272 313 8,500  Level Seattle Center
Thu 08:44:49 PM 45.2367 -122.6419 North 267 307 7,600 -1,033 Descending Seattle Center
Thu 08:45:50 PM 45.3114 -122.6361 North 270 311 6,400 -1,180 Descending Seattle Center
Thu 08:46:51 PM 45.3836 -122.6283 North 260 299 5,200 -1,190 Descending Seattle Center
Thu 08:47:51 PM 45.4550 -122.6175 North 233 268 4,000 -1,140 Descending Seattle Center
Thu 08:48:52 PM 45.5128 -122.6033 10° North 209 241 2,900 -1,082 Descending Seattle Center
Thu 08:49:53 PM 45.5444 -122.5564 46° Northeast 151 174 1,800 -1,131 Descending Seattle Center
Thu 08:50:54 PM 45.5753 -122.5469 12° North 110 127 600 -1,180 Descending Seattle Center
Thu 08:52:00 PM 45.5833 -122.5833 North  Level FlightAware Approximate

Login

Don't have an account? Register now (free) for customized features, flight alerts, and more!